sensor_id;sensor_type;location;lat;lon;timestamp;temperature;humidity
15111;DHT22;7656;51.954;7.998;2024-01-16T00:01:46;1.50;99.90
15111;DHT22;7656;51.954;7.998;2024-01-16T00:06:07;1.60;99.90
15111;DHT22;7656;51.954;7.998;2024-01-16T00:10:29;1.60;99.90
15111;DHT22;7656;51.954;7.998;2024-01-16T00:14:50;1.60;99.90
15111;DHT22;7656;51.954;7.998;2024-01-16T00:19:12;1.50;99.90
15111;DHT22;7656;51.954;7.998;2024-01-16T00:23:33;1.40;99.90
15111;DHT22;7656;51.954;7.998;2024-01-16T00:27:55;1.40;99.90
15111;DHT22;7656;51.954;7.998;2024-01-16T00:32:16;1.40;99.90
15111;DHT22;7656;51.954;7.998;2024-01-16T00:36:37;1.50;99.90
15111;DHT22;7656;51.954;7.998;2024-01-16T00:40:59;1.60;99.90
15111;DHT22;7656;51.954;7.998;2024-01-16T00:45:20;1.60;99.90
15111;DHT22;7656;51.954;7.998;2024-01-16T00:49:42;1.80;99.90
15111;DHT22;7656;51.954;7.998;2024-01-16T00:54:03;1.70;99.90
15111;DHT22;7656;51.954;7.998;2024-01-16T00:58:27;1.80;99.90
15111;DHT22;7656;51.954;7.998;2024-01-16T01:02:48;1.60;99.90
15111;DHT22;7656;51.954;7.998;2024-01-16T01:07:13;1.70;99.90
15111;DHT22;7656;51.954;7.998;2024-01-16T01:11:35;1.80;99.90
15111;DHT22;7656;51.954;7.998;2024-01-16T01:15:56;1.80;99.90
15111;DHT22;7656;51.954;7.998;2024-01-16T01:20:18;1.80;99.90
15111;DHT22;7656;51.954;7.998;2024-01-16T01:24:40;1.60;99.90
15111;DHT22;7656;51.954;7.998;2024-01-16T01:29:01;1.70;99.90
15111;DHT22;7656;51.954;7.998;2024-01-16T01:33:23;1.70;99.90
15111;DHT22;7656;51.954;7.998;2024-01-16T01:37:44;1.50;99.90
15111;DHT22;7656;51.954;7.998;2024-01-16T01:42:05;1.50;99.90
15111;DHT22;7656;51.954;7.998;2024-01-16T01:46:27;1.40;99.90
15111;DHT22;7656;51.954;7.998;2024-01-16T01:50:49;1.40;99.90
15111;DHT22;7656;51.954;7.998;2024-01-16T01:55:12;1.30;99.90
15111;DHT22;7656;51.954;7.998;2024-01-16T01:59:34;1.30;99.90
15111;DHT22;7656;51.954;7.998;2024-01-16T02:03:56;1.50;99.90
15111;DHT22;7656;51.954;7.998;2024-01-16T02:08:18;1.50;99.90
15111;DHT22;7656;51.954;7.998;2024-01-16T02:12:39;1.60;99.90
15111;DHT22;7656;51.954;7.998;2024-01-16T02:17:01;1.40;99.90
15111;DHT22;7656;51.954;7.998;2024-01-16T02:21:23;1.40;99.90
15111;DHT22;7656;51.954;7.998;2024-01-16T02:25:46;1.50;99.90
15111;DHT22;7656;51.954;7.998;2024-01-16T02:30:07;1.60;99.90
15111;DHT22;7656;51.954;7.998;2024-01-16T02:34:28;1.50;99.90
15111;DHT22;7656;51.954;7.998;2024-01-16T02:38:49;1.30;99.90
15111;DHT22;7656;51.954;7.998;2024-01-16T02:43:11;1.20;99.90
15111;DHT22;7656;51.954;7.998;2024-01-16T02:47:32;1.10;99.90
15111;DHT22;7656;51.954;7.998;2024-01-16T02:51:53;1.10;99.90
15111;DHT22;7656;51.954;7.998;2024-01-16T02:56:15;1.10;99.90
15111;DHT22;7656;51.954;7.998;2024-01-16T03:00:36;1.10;99.90
15111;DHT22;7656;51.954;7.998;2024-01-16T03:04:57;1.10;99.90
15111;DHT22;7656;51.954;7.998;2024-01-16T03:09:19;1.10;99.90
15111;DHT22;7656;51.954;7.998;2024-01-16T03:13:40;1.30;99.90
15111;DHT22;7656;51.954;7.998;2024-01-16T03:18:01;1.10;99.90
15111;DHT22;7656;51.954;7.998;2024-01-16T03:22:22;1.20;99.90
15111;DHT22;7656;51.954;7.998;2024-01-16T03:26:43;1.30;99.90
15111;DHT22;7656;51.954;7.998;2024-01-16T03:31:04;1.30;99.90
15111;DHT22;7656;51.954;7.998;2024-01-16T03:35:25;1.40;99.90
15111;DHT22;7656;51.954;7.998;2024-01-16T03:39:47;1.50;99.90
15111;DHT22;7656;51.954;7.998;2024-01-16T03:44:08;1.30;99.90
15111;DHT22;7656;51.954;7.998;2024-01-16T03:48:30;1.10;99.90
15111;DHT22;7656;51.954;7.998;2024-01-16T03:52:51;0.80;99.90
15111;DHT22;7656;51.954;7.998;2024-01-16T03:57:12;0.90;99.90
15111;DHT22;7656;51.954;7.998;2024-01-16T04:01:34;0.90;99.90
15111;DHT22;7656;51.954;7.998;2024-01-16T04:05:57;1.10;99.90
15111;DHT22;7656;51.954;7.998;2024-01-16T04:10:18;1.30;99.90
15111;DHT22;7656;51.954;7.998;2024-01-16T04:14:40;1.30;99.90
15111;DHT22;7656;51.954;7.998;2024-01-16T04:19:01;1.30;99.90
15111;DHT22;7656;51.954;7.998;2024-01-16T04:23:22;1.20;99.90
15111;DHT22;7656;51.954;7.998;2024-01-16T04:27:43;1.30;99.90
15111;DHT22;7656;51.954;7.998;2024-01-16T04:32:04;1.50;99.90
15111;DHT22;7656;51.954;7.998;2024-01-16T04:36:25;1.40;99.90
15111;DHT22;7656;51.954;7.998;2024-01-16T04:40:46;1.40;99.90
15111;DHT22;7656;51.954;7.998;2024-01-16T04:45:08;1.50;99.90
15111;DHT22;7656;51.954;7.998;2024-01-16T04:49:29;1.40;99.90
15111;DHT22;7656;51.954;7.998;2024-01-16T04:53:50;1.60;99.90
15111;DHT22;7656;51.954;7.998;2024-01-16T04:58:11;1.50;99.90
15111;DHT22;7656;51.954;7.998;2024-01-16T05:02:33;1.40;99.90
15111;DHT22;7656;51.954;7.998;2024-01-16T05:06:54;1.10;99.90
15111;DHT22;7656;51.954;7.998;2024-01-16T05:11:16;1.30;99.90
15111;DHT22;7656;51.954;7.998;2024-01-16T05:15:37;1.40;99.90
15111;DHT22;7656;51.954;7.998;2024-01-16T05:19:58;1.40;99.90
15111;DHT22;7656;51.954;7.998;2024-01-16T05:24:20;1.40;99.90
15111;DHT22;7656;51.954;7.998;2024-01-16T05:28:41;1.50;99.90
15111;DHT22;7656;51.954;7.998;2024-01-16T05:33:02;1.50;99.90
15111;DHT22;7656;51.954;7.998;2024-01-16T05:37:23;1.60;99.90
15111;DHT22;7656;51.954;7.998;2024-01-16T05:41:44;1.70;99.90
15111;DHT22;7656;51.954;7.998;2024-01-16T05:46:05;1.50;99.90
15111;DHT22;7656;51.954;7.998;2024-01-16T05:50:27;1.40;99.90
15111;DHT22;7656;51.954;7.998;2024-01-16T05:54:48;1.50;99.90
15111;DHT22;7656;51.954;7.998;2024-01-16T05:59:09;1.40;99.90
15111;DHT22;7656;51.954;7.998;2024-01-16T06:03:30;1.30;99.90
15111;DHT22;7656;51.954;7.998;2024-01-16T06:07:52;1.30;99.90
15111;DHT22;7656;51.954;7.998;2024-01-16T06:12:13;1.40;99.90
15111;DHT22;7656;51.954;7.998;2024-01-16T06:16:34;1.60;99.90
15111;DHT22;7656;51.954;7.998;2024-01-16T06:20:55;1.40;99.90
15111;DHT22;7656;51.954;7.998;2024-01-16T06:25:16;1.40;99.90
15111;DHT22;7656;51.954;7.998;2024-01-16T06:29:37;1.60;99.90
15111;DHT22;7656;51.954;7.998;2024-01-16T06:33:58;1.60;99.90
15111;DHT22;7656;51.954;7.998;2024-01-16T06:38:19;1.70;99.90
15111;DHT22;7656;51.954;7.998;2024-01-16T06:42:40;1.70;99.90
15111;DHT22;7656;51.954;7.998;2024-01-16T06:47:01;1.70;99.90
15111;DHT22;7656;51.954;7.998;2024-01-16T06:51:22;1.70;99.90
15111;DHT22;7656;51.954;7.998;2024-01-16T06:55:43;1.70;99.90
15111;DHT22;7656;51.954;7.998;2024-01-16T07:00:04;1.50;99.90
15111;DHT22;7656;51.954;7.998;2024-01-16T07:04:28;1.50;99.90
15111;DHT22;7656;51.954;7.998;2024-01-16T07:08:49;1.40;99.90
15111;DHT22;7656;51.954;7.998;2024-01-16T07:13:10;1.50;99.90
15111;DHT22;7656;51.954;7.998;2024-01-16T07:17:32;1.40;99.90
15111;DHT22;7656;51.954;7.998;2024-01-16T07:21:53;1.50;99.90
15111;DHT22;7656;51.954;7.998;2024-01-16T07:26:16;1.50;99.90
15111;DHT22;7656;51.954;7.998;2024-01-16T07:30:37;1.50;99.90
15111;DHT22;7656;51.954;7.998;2024-01-16T07:34:58;1.40;99.90
15111;DHT22;7656;51.954;7.998;2024-01-16T07:39:19;1.50;99.90
15111;DHT22;7656;51.954;7.998;2024-01-16T07:43:40;1.30;99.90
15111;DHT22;7656;51.954;7.998;2024-01-16T07:48:01;1.50;99.90
15111;DHT22;7656;51.954;7.998;2024-01-16T07:52:22;1.50;99.90
15111;DHT22;7656;51.954;7.998;2024-01-16T07:56:43;1.50;99.90
15111;DHT22;7656;51.954;7.998;2024-01-16T08:01:05;1.60;99.90
15111;DHT22;7656;51.954;7.998;2024-01-16T08:05:26;1.60;99.90
15111;DHT22;7656;51.954;7.998;2024-01-16T08:09:48;1.70;99.90
15111;DHT22;7656;51.954;7.998;2024-01-16T08:14:09;1.90;99.90
15111;DHT22;7656;51.954;7.998;2024-01-16T08:18:30;2.00;99.90
15111;DHT22;7656;51.954;7.998;2024-01-16T08:22:53;2.00;99.90
15111;DHT22;7656;51.954;7.998;2024-01-16T08:27:14;1.80;99.90
15111;DHT22;7656;51.954;7.998;2024-01-16T08:31:36;1.80;99.90
15111;DHT22;7656;51.954;7.998;2024-01-16T08:35:59;1.90;99.90
15111;DHT22;7656;51.954;7.998;2024-01-16T08:40:20;2.00;99.90
15111;DHT22;7656;51.954;7.998;2024-01-16T08:44:41;2.20;99.90
15111;DHT22;7656;51.954;7.998;2024-01-16T08:49:02;2.10;99.90
15111;DHT22;7656;51.954;7.998;2024-01-16T08:53:23;2.20;99.90
15111;DHT22;7656;51.954;7.998;2024-01-16T08:57:45;2.20;99.90
15111;DHT22;7656;51.954;7.998;2024-01-16T09:02:06;2.10;99.90
15111;DHT22;7656;51.954;7.998;2024-01-16T09:06:27;2.00;99.90
15111;DHT22;7656;51.954;7.998;2024-01-16T09:10:48;2.10;99.90
15111;DHT22;7656;51.954;7.998;2024-01-16T09:15:09;2.20;99.90
15111;DHT22;7656;51.954;7.998;2024-01-16T09:19:30;2.10;99.90
15111;DHT22;7656;51.954;7.998;2024-01-16T09:23:51;2.00;99.90
15111;DHT22;7656;51.954;7.998;2024-01-16T09:28:12;2.00;99.90
15111;DHT22;7656;51.954;7.998;2024-01-16T09:32:33;2.20;99.90
15111;DHT22;7656;51.954;7.998;2024-01-16T09:36:55;2.20;99.90
15111;DHT22;7656;51.954;7.998;2024-01-16T09:41:19;2.40;99.90
15111;DHT22;7656;51.954;7.998;2024-01-16T09:45:41;2.70;99.90
15111;DHT22;7656;51.954;7.998;2024-01-16T09:50:02;2.50;99.90
15111;DHT22;7656;51.954;7.998;2024-01-16T09:54:23;2.40;99.90
15111;DHT22;7656;51.954;7.998;2024-01-16T09:58:46;2.20;99.90
15111;DHT22;7656;51.954;7.998;2024-01-16T10:03:12;2.10;99.90
15111;DHT22;7656;51.954;7.998;2024-01-16T10:07:37;2.20;99.90
15111;DHT22;7656;51.954;7.998;2024-01-16T10:11:59;2.10;99.90
15111;DHT22;7656;51.954;7.998;2024-01-16T10:16:21;2.10;99.90
15111;DHT22;7656;51.954;7.998;2024-01-16T10:20:42;2.40;99.90
15111;DHT22;7656;51.954;7.998;2024-01-16T10:25:07;2.60;99.90
15111;DHT22;7656;51.954;7.998;2024-01-16T10:29:30;2.60;99.90
15111;DHT22;7656;51.954;7.998;2024-01-16T10:33:53;2.40;99.90
15111;DHT22;7656;51.954;7.998;2024-01-16T10:38:21;2.60;99.90
15111;DHT22;7656;51.954;7.998;2024-01-16T10:42:43;2.40;99.90
15111;DHT22;7656;51.954;7.998;2024-01-16T10:47:11;2.50;99.90
15111;DHT22;7656;51.954;7.998;2024-01-16T10:51:32;2.70;99.90
15111;DHT22;7656;51.954;7.998;2024-01-16T10:55:57;2.80;99.90
15111;DHT22;7656;51.954;7.998;2024-01-16T11:00:19;2.60;99.90
15111;DHT22;7656;51.954;7.998;2024-01-16T11:04:43;2.60;99.90
15111;DHT22;7656;51.954;7.998;2024-01-16T11:09:05;2.40;99.90
15111;DHT22;7656;51.954;7.998;2024-01-16T11:13:27;2.40;99.90
15111;DHT22;7656;51.954;7.998;2024-01-16T11:17:49;2.60;99.90
15111;DHT22;7656;51.954;7.998;2024-01-16T11:22:10;2.60;99.90
15111;DHT22;7656;51.954;7.998;2024-01-16T11:26:33;2.60;99.90
15111;DHT22;7656;51.954;7.998;2024-01-16T11:30:57;2.80;99.90
15111;DHT22;7656;51.954;7.998;2024-01-16T11:35:32;2.40;99.90
15111;DHT22;7656;51.954;7.998;2024-01-16T11:44:49;2.60;99.90
15111;DHT22;7656;51.954;7.998;2024-01-16T11:49:19;2.50;99.90
15111;DHT22;7656;51.954;7.998;2024-01-16T11:53:40;2.40;99.90
15111;DHT22;7656;51.954;7.998;2024-01-16T11:58:35;2.40;99.90
15111;DHT22;7656;51.954;7.998;2024-01-16T12:03:06;2.20;99.90
15111;DHT22;7656;51.954;7.998;2024-01-16T12:07:28;2.20;99.90
15111;DHT22;7656;51.954;7.998;2024-01-16T12:12:00;2.10;99.90
15111;DHT22;7656;51.954;7.998;2024-01-16T12:16:24;2.10;99.90
15111;DHT22;7656;51.954;7.998;2024-01-16T12:20:45;2.30;99.90
15111;DHT22;7656;51.954;7.998;2024-01-16T12:25:07;2.40;99.90
15111;DHT22;7656;51.954;7.998;2024-01-16T12:29:29;2.40;99.90
15111;DHT22;7656;51.954;7.998;2024-01-16T12:33:54;2.50;99.90
15111;DHT22;7656;51.954;7.998;2024-01-16T12:38:25;2.40;99.90
15111;DHT22;7656;51.954;7.998;2024-01-16T12:42:46;2.40;99.90
15111;DHT22;7656;51.954;7.998;2024-01-16T12:47:07;2.80;99.90
15111;DHT22;7656;51.954;7.998;2024-01-16T12:51:28;3.00;99.90
15111;DHT22;7656;51.954;7.998;2024-01-16T12:56:01;3.10;99.90
15111;DHT22;7656;51.954;7.998;2024-01-16T13:00:25;3.30;99.90
15111;DHT22;7656;51.954;7.998;2024-01-16T13:04:47;3.20;99.90
15111;DHT22;7656;51.954;7.998;2024-01-16T13:09:10;3.10;99.90
15111;DHT22;7656;51.954;7.998;2024-01-16T13:13:36;2.80;99.90
15111;DHT22;7656;51.954;7.998;2024-01-16T13:17:57;2.90;99.90
15111;DHT22;7656;51.954;7.998;2024-01-16T13:22:18;3.00;99.90
15111;DHT22;7656;51.954;7.998;2024-01-16T13:26:40;3.10;99.90
15111;DHT22;7656;51.954;7.998;2024-01-16T13:31:02;3.10;99.90
15111;DHT22;7656;51.954;7.998;2024-01-16T13:35:24;2.90;99.90
15111;DHT22;7656;51.954;7.998;2024-01-16T13:39:45;2.90;99.90
15111;DHT22;7656;51.954;7.998;2024-01-16T13:44:07;2.70;99.90
15111;DHT22;7656;51.954;7.998;2024-01-16T13:48:28;2.60;99.90
15111;DHT22;7656;51.954;7.998;2024-01-16T13:52:49;2.70;99.90
15111;DHT22;7656;51.954;7.998;2024-01-16T13:57:10;3.00;99.90
15111;DHT22;7656;51.954;7.998;2024-01-16T14:01:31;3.20;99.90
15111;DHT22;7656;51.954;7.998;2024-01-16T14:05:54;3.40;99.90
15111;DHT22;7656;51.954;7.998;2024-01-16T14:10:20;3.70;99.90
15111;DHT22;7656;51.954;7.998;2024-01-16T14:14:42;4.40;99.90
15111;DHT22;7656;51.954;7.998;2024-01-16T14:19:04;5.20;99.90
15111;DHT22;7656;51.954;7.998;2024-01-16T14:23:25;6.00;99.90
15111;DHT22;7656;51.954;7.998;2024-01-16T14:27:50;7.00;99.90
15111;DHT22;7656;51.954;7.998;2024-01-16T14:32:17;7.00;99.90
15111;DHT22;7656;51.954;7.998;2024-01-16T14:36:42;6.30;99.90
15111;DHT22;7656;51.954;7.998;2024-01-16T14:41:03;6.00;99.90
15111;DHT22;7656;51.954;7.998;2024-01-16T14:45:25;5.50;99.90
15111;DHT22;7656;51.954;7.998;2024-01-16T14:49:47;5.20;99.90
15111;DHT22;7656;51.954;7.998;2024-01-16T14:54:09;5.00;99.90
15111;DHT22;7656;51.954;7.998;2024-01-16T14:58:30;4.80;99.90
15111;DHT22;7656;51.954;7.998;2024-01-16T15:02:51;4.60;99.90
15111;DHT22;7656;51.954;7.998;2024-01-16T15:07:13;4.30;99.90
15111;DHT22;7656;51.954;7.998;2024-01-16T15:11:34;4.10;99.90
15111;DHT22;7656;51.954;7.998;2024-01-16T15:15:55;3.70;99.90
15111;DHT22;7656;51.954;7.998;2024-01-16T15:20:16;3.60;99.90
15111;DHT22;7656;51.954;7.998;2024-01-16T15:24:37;3.60;99.90
15111;DHT22;7656;51.954;7.998;2024-01-16T15:28:58;3.30;99.90
15111;DHT22;7656;51.954;7.998;2024-01-16T15:33:19;3.10;99.90
15111;DHT22;7656;51.954;7.998;2024-01-16T15:37:41;3.00;99.90
15111;DHT22;7656;51.954;7.998;2024-01-16T15:42:02;2.70;99.90
15111;DHT22;7656;51.954;7.998;2024-01-16T15:46:24;2.70;99.90
15111;DHT22;7656;51.954;7.998;2024-01-16T15:50:45;2.70;99.90
15111;DHT22;7656;51.954;7.998;2024-01-16T15:55:06;2.60;99.90
15111;DHT22;7656;51.954;7.998;2024-01-16T15:59:27;2.40;99.90
15111;DHT22;7656;51.954;7.998;2024-01-16T16:03:49;2.40;99.90
15111;DHT22;7656;51.954;7.998;2024-01-16T16:08:10;2.30;99.90
15111;DHT22;7656;51.954;7.998;2024-01-16T16:12:31;2.30;99.90
15111;DHT22;7656;51.954;7.998;2024-01-16T16:16:52;2.30;99.90
15111;DHT22;7656;51.954;7.998;2024-01-16T16:21:13;2.20;99.90
15111;DHT22;7656;51.954;7.998;2024-01-16T16:25:34;2.20;99.90
15111;DHT22;7656;51.954;7.998;2024-01-16T16:29:56;2.10;99.90
15111;DHT22;7656;51.954;7.998;2024-01-16T16:34:18;2.10;99.90
15111;DHT22;7656;51.954;7.998;2024-01-16T16:38:40;2.00;99.90
15111;DHT22;7656;51.954;7.998;2024-01-16T16:43:02;1.80;99.90
15111;DHT22;7656;51.954;7.998;2024-01-16T16:47:25;1.80;99.90
15111;DHT22;7656;51.954;7.998;2024-01-16T16:51:46;1.90;99.90
15111;DHT22;7656;51.954;7.998;2024-01-16T16:56:08;1.70;99.90
15111;DHT22;7656;51.954;7.998;2024-01-16T17:00:32;1.70;99.90
15111;DHT22;7656;51.954;7.998;2024-01-16T17:04:53;1.60;99.90
15111;DHT22;7656;51.954;7.998;2024-01-16T17:09:14;1.40;99.90
15111;DHT22;7656;51.954;7.998;2024-01-16T17:13:42;1.40;99.90
15111;DHT22;7656;51.954;7.998;2024-01-16T17:18:03;1.50;99.90
15111;DHT22;7656;51.954;7.998;2024-01-16T17:22:24;1.50;99.90
15111;DHT22;7656;51.954;7.998;2024-01-16T17:26:45;1.30;99.90
15111;DHT22;7656;51.954;7.998;2024-01-16T17:31:06;1.20;99.90
15111;DHT22;7656;51.954;7.998;2024-01-16T17:35:28;1.30;99.90
15111;DHT22;7656;51.954;7.998;2024-01-16T17:39:49;1.10;99.90
15111;DHT22;7656;51.954;7.998;2024-01-16T17:44:10;1.00;99.90
15111;DHT22;7656;51.954;7.998;2024-01-16T17:48:31;0.90;99.90
15111;DHT22;7656;51.954;7.998;2024-01-16T17:52:54;0.90;99.90
15111;DHT22;7656;51.954;7.998;2024-01-16T17:57:17;0.90;99.90
15111;DHT22;7656;51.954;7.998;2024-01-16T18:01:38;0.90;99.90
15111;DHT22;7656;51.954;7.998;2024-01-16T18:05:59;0.80;99.90
15111;DHT22;7656;51.954;7.998;2024-01-16T18:10:25;0.60;99.90
15111;DHT22;7656;51.954;7.998;2024-01-16T18:14:47;0.70;99.90
15111;DHT22;7656;51.954;7.998;2024-01-16T18:19:08;0.60;99.90
15111;DHT22;7656;51.954;7.998;2024-01-16T18:23:29;0.20;99.90
15111;DHT22;7656;51.954;7.998;2024-01-16T18:27:51;0.20;99.90
15111;DHT22;7656;51.954;7.998;2024-01-16T18:32:17;0.40;99.90
15111;DHT22;7656;51.954;7.998;2024-01-16T18:36:38;0.50;99.90
15111;DHT22;7656;51.954;7.998;2024-01-16T18:40:59;0.30;99.90
15111;DHT22;7656;51.954;7.998;2024-01-16T18:45:21;0.30;99.90
15111;DHT22;7656;51.954;7.998;2024-01-16T18:49:42;0.30;99.90
15111;DHT22;7656;51.954;7.998;2024-01-16T18:54:03;0.30;99.90
15111;DHT22;7656;51.954;7.998;2024-01-16T18:58:25;0.20;99.90
15111;DHT22;7656;51.954;7.998;2024-01-16T19:02:46;0.10;99.90
15111;DHT22;7656;51.954;7.998;2024-01-16T19:07:08;0.10;99.90
15111;DHT22;7656;51.954;7.998;2024-01-16T19:11:38;0.10;99.90
15111;DHT22;7656;51.954;7.998;2024-01-16T19:15:59;0.00;99.90
15111;DHT22;7656;51.954;7.998;2024-01-16T19:20:21;0.00;99.90
15111;DHT22;7656;51.954;7.998;2024-01-16T19:24:42;0.20;99.90
15111;DHT22;7656;51.954;7.998;2024-01-16T19:29:03;0.00;99.90
15111;DHT22;7656;51.954;7.998;2024-01-16T19:33:28;-0.10;99.90
15111;DHT22;7656;51.954;7.998;2024-01-16T19:37:49;-0.10;99.90
15111;DHT22;7656;51.954;7.998;2024-01-16T19:42:11;-0.30;99.90
15111;DHT22;7656;51.954;7.998;2024-01-16T19:46:32;-0.20;99.90
15111;DHT22;7656;51.954;7.998;2024-01-16T19:50:53;-0.10;99.90
15111;DHT22;7656;51.954;7.998;2024-01-16T19:55:14;-0.40;99.90
15111;DHT22;7656;51.954;7.998;2024-01-16T19:59:37;-0.50;99.90
15111;DHT22;7656;51.954;7.998;2024-01-16T20:04:01;-0.50;99.90
15111;DHT22;7656;51.954;7.998;2024-01-16T20:08:22;-0.60;99.90
15111;DHT22;7656;51.954;7.998;2024-01-16T20:12:46;-0.50;99.90
15111;DHT22;7656;51.954;7.998;2024-01-16T20:17:09;-0.60;99.90
15111;DHT22;7656;51.954;7.998;2024-01-16T20:21:30;-0.50;99.90
15111;DHT22;7656;51.954;7.998;2024-01-16T20:25:51;-0.60;99.90
15111;DHT22;7656;51.954;7.998;2024-01-16T20:30:13;-0.50;99.90
15111;DHT22;7656;51.954;7.998;2024-01-16T20:34:34;-0.50;99.90
15111;DHT22;7656;51.954;7.998;2024-01-16T20:38:55;-0.60;99.90
15111;DHT22;7656;51.954;7.998;2024-01-16T20:43:16;-0.70;99.90
15111;DHT22;7656;51.954;7.998;2024-01-16T20:47:39;-0.70;99.90
15111;DHT22;7656;51.954;7.998;2024-01-16T20:52:00;-0.60;99.90
15111;DHT22;7656;51.954;7.998;2024-01-16T20:56:21;-0.90;99.90
15111;DHT22;7656;51.954;7.998;2024-01-16T21:00:42;-0.70;99.90
15111;DHT22;7656;51.954;7.998;2024-01-16T21:05:06;-0.60;99.90
15111;DHT22;7656;51.954;7.998;2024-01-16T21:09:28;-0.50;99.90
15111;DHT22;7656;51.954;7.998;2024-01-16T21:13:49;-0.70;99.90
15111;DHT22;7656;51.954;7.998;2024-01-16T21:18:12;-0.70;99.90
15111;DHT22;7656;51.954;7.998;2024-01-16T21:22:33;-0.40;99.90
15111;DHT22;7656;51.954;7.998;2024-01-16T21:26:54;-0.30;99.90
15111;DHT22;7656;51.954;7.998;2024-01-16T21:31:16;-0.60;99.90
15111;DHT22;7656;51.954;7.998;2024-01-16T21:35:42;-0.70;99.90
15111;DHT22;7656;51.954;7.998;2024-01-16T21:40:05;-0.60;99.90
15111;DHT22;7656;51.954;7.998;2024-01-16T21:44:27;-0.70;99.90
15111;DHT22;7656;51.954;7.998;2024-01-16T21:48:48;-0.90;99.90
15111;DHT22;7656;51.954;7.998;2024-01-16T21:53:09;-0.70;99.90
15111;DHT22;7656;51.954;7.998;2024-01-16T21:57:30;-0.70;99.90
15111;DHT22;7656;51.954;7.998;2024-01-16T22:01:52;-0.70;99.90
15111;DHT22;7656;51.954;7.998;2024-01-16T22:06:13;-0.60;99.90
15111;DHT22;7656;51.954;7.998;2024-01-16T22:10:35;-0.60;99.90
15111;DHT22;7656;51.954;7.998;2024-01-16T22:14:57;-0.60;99.90
15111;DHT22;7656;51.954;7.998;2024-01-16T22:19:18;-0.50;99.90
15111;DHT22;7656;51.954;7.998;2024-01-16T22:23:43;-0.60;99.90
15111;DHT22;7656;51.954;7.998;2024-01-16T22:28:07;-0.70;99.90
15111;DHT22;7656;51.954;7.998;2024-01-16T22:32:29;-0.90;99.90
15111;DHT22;7656;51.954;7.998;2024-01-16T22:36:50;-0.80;99.90
15111;DHT22;7656;51.954;7.998;2024-01-16T22:41:12;-0.90;99.90
15111;DHT22;7656;51.954;7.998;2024-01-16T22:45:33;-0.90;99.90
15111;DHT22;7656;51.954;7.998;2024-01-16T22:49:54;-0.90;99.90
15111;DHT22;7656;51.954;7.998;2024-01-16T22:54:15;-1.10;99.90
15111;DHT22;7656;51.954;7.998;2024-01-16T22:58:36;-1.20;99.90
15111;DHT22;7656;51.954;7.998;2024-01-16T23:02:57;-1.10;99.90
15111;DHT22;7656;51.954;7.998;2024-01-16T23:07:18;-1.30;99.90
15111;DHT22;7656;51.954;7.998;2024-01-16T23:11:39;-1.20;99.90
15111;DHT22;7656;51.954;7.998;2024-01-16T23:16:00;-1.10;99.90
15111;DHT22;7656;51.954;7.998;2024-01-16T23:20:21;-1.20;99.90
15111;DHT22;7656;51.954;7.998;2024-01-16T23:24:43;-1.10;99.90
15111;DHT22;7656;51.954;7.998;2024-01-16T23:29:04;-1.00;99.90
15111;DHT22;7656;51.954;7.998;2024-01-16T23:33:25;-1.10;99.90
15111;DHT22;7656;51.954;7.998;2024-01-16T23:37:46;-1.20;99.90
15111;DHT22;7656;51.954;7.998;2024-01-16T23:42:09;-1.20;99.90
15111;DHT22;7656;51.954;7.998;2024-01-16T23:46:34;-1.20;99.90
15111;DHT22;7656;51.954;7.998;2024-01-16T23:50:57;-1.40;99.90
15111;DHT22;7656;51.954;7.998;2024-01-16T23:55:18;-1.20;99.90
15111;DHT22;7656;51.954;7.998;2024-01-16T23:59:39;-1.20;99.90
